sensor_id;sensor_type;location;lat;lon;timestamp;temperature;humidity
19567;DHT22;9930;49.240;8.548;2023-12-20T00:01:16;8.10;87.80
19567;DHT22;9930;49.240;8.548;2023-12-20T00:03:41;8.10;87.90
19567;DHT22;9930;49.240;8.548;2023-12-20T00:06:10;8.10;88.00
19567;DHT22;9930;49.240;8.548;2023-12-20T00:08:40;8.10;88.20
19567;DHT22;9930;49.240;8.548;2023-12-20T00:11:11;8.10;88.20
19567;DHT22;9930;49.240;8.548;2023-12-20T00:13:39;8.10;88.00
19567;DHT22;9930;49.240;8.548;2023-12-20T00:16:06;8.10;88.00
19567;DHT22;9930;49.240;8.548;2023-12-20T00:18:34;8.10;88.00
19567;DHT22;9930;49.240;8.548;2023-12-20T00:21:01;8.10;88.00
19567;DHT22;9930;49.240;8.548;2023-12-20T00:23:26;8.10;88.10
19567;DHT22;9930;49.240;8.548;2023-12-20T00:25:54;8.10;88.10
19567;DHT22;9930;49.240;8.548;2023-12-20T00:28:20;8.10;88.20
19567;DHT22;9930;49.240;8.548;2023-12-20T00:30:45;8.10;88.30
19567;DHT22;9930;49.240;8.548;2023-12-20T00:33:11;8.10;88.30
19567;DHT22;9930;49.240;8.548;2023-12-20T00:35:39;8.10;88.30
19567;DHT22;9930;49.240;8.548;2023-12-20T00:38:07;8.10;88.50
19567;DHT22;9930;49.240;8.548;2023-12-20T00:40:35;8.10;88.50
19567;DHT22;9930;49.240;8.548;2023-12-20T00:43:03;8.10;88.50
19567;DHT22;9930;49.240;8.548;2023-12-20T00:45:31;8.10;88.60
19567;DHT22;9930;49.240;8.548;2023-12-20T00:47:57;8.10;88.70
19567;DHT22;9930;49.240;8.548;2023-12-20T00:50:24;8.10;88.70
19567;DHT22;9930;49.240;8.548;2023-12-20T00:52:50;8.10;88.70
19567;DHT22;9930;49.240;8.548;2023-12-20T00:55:18;8.10;88.80
19567;DHT22;9930;49.240;8.548;2023-12-20T00:57:46;8.10;88.70
19567;DHT22;9930;49.240;8.548;2023-12-20T01:00:13;8.10;88.80
19567;DHT22;9930;49.240;8.548;2023-12-20T01:02:44;8.10;88.90
19567;DHT22;9930;49.240;8.548;2023-12-20T01:05:12;8.20;89.00
19567;DHT22;9930;49.240;8.548;2023-12-20T01:07:37;8.20;88.80
19567;DHT22;9930;49.240;8.548;2023-12-20T01:10:03;8.20;88.90
19567;DHT22;9930;49.240;8.548;2023-12-20T01:12:30;8.20;88.90
19567;DHT22;9930;49.240;8.548;2023-12-20T01:14:56;8.20;89.00
19567;DHT22;9930;49.240;8.548;2023-12-20T01:17:23;8.20;89.10
19567;DHT22;9930;49.240;8.548;2023-12-20T01:19:50;8.20;89.10
19567;DHT22;9930;49.240;8.548;2023-12-20T01:22:19;8.20;89.20
19567;DHT22;9930;49.240;8.548;2023-12-20T01:24:44;8.20;89.20
19567;DHT22;9930;49.240;8.548;2023-12-20T01:27:10;8.20;89.10
19567;DHT22;9930;49.240;8.548;2023-12-20T01:29:38;8.20;89.10
19567;DHT22;9930;49.240;8.548;2023-12-20T01:32:04;8.20;89.20
19567;DHT22;9930;49.240;8.548;2023-12-20T01:34:34;8.20;89.30
19567;DHT22;9930;49.240;8.548;2023-12-20T01:37:01;8.20;89.20
19567;DHT22;9930;49.240;8.548;2023-12-20T01:39:28;8.20;89.20
19567;DHT22;9930;49.240;8.548;2023-12-20T01:41:53;8.20;89.20
19567;DHT22;9930;49.240;8.548;2023-12-20T01:44:19;8.20;89.20
19567;DHT22;9930;49.240;8.548;2023-12-20T01:46:45;8.20;89.20
19567;DHT22;9930;49.240;8.548;2023-12-20T01:49:12;8.20;89.30
19567;DHT22;9930;49.240;8.548;2023-12-20T01:51:40;8.20;89.40
19567;DHT22;9930;49.240;8.548;2023-12-20T01:54:06;8.20;89.40
19567;DHT22;9930;49.240;8.548;2023-12-20T01:56:32;8.20;89.30
19567;DHT22;9930;49.240;8.548;2023-12-20T01:59:01;8.20;89.50
19567;DHT22;9930;49.240;8.548;2023-12-20T02:01:28;8.20;89.50
19567;DHT22;9930;49.240;8.548;2023-12-20T02:03:57;8.20;89.50
19567;DHT22;9930;49.240;8.548;2023-12-20T02:06:23;8.20;89.40
19567;DHT22;9930;49.240;8.548;2023-12-20T02:08:54;8.20;89.40
19567;DHT22;9930;49.240;8.548;2023-12-20T02:11:20;8.30;89.70
19567;DHT22;9930;49.240;8.548;2023-12-20T02:13:48;8.30;89.60
19567;DHT22;9930;49.240;8.548;2023-12-20T02:16:15;8.30;89.60
19567;DHT22;9930;49.240;8.548;2023-12-20T02:18:42;8.30;89.80
19567;DHT22;9930;49.240;8.548;2023-12-20T02:21:11;8.30;89.60
19567;DHT22;9930;49.240;8.548;2023-12-20T02:23:39;8.30;89.70
19567;DHT22;9930;49.240;8.548;2023-12-20T02:26:06;8.30;89.80
19567;DHT22;9930;49.240;8.548;2023-12-20T02:28:38;8.30;89.80
19567;DHT22;9930;49.240;8.548;2023-12-20T02:31:07;8.30;89.80
19567;DHT22;9930;49.240;8.548;2023-12-20T02:33:32;8.30;89.80
19567;DHT22;9930;49.240;8.548;2023-12-20T02:35:58;8.30;89.80
19567;DHT22;9930;49.240;8.548;2023-12-20T02:38:26;8.30;90.00
19567;DHT22;9930;49.240;8.548;2023-12-20T02:40:54;8.30;89.70
19567;DHT22;9930;49.240;8.548;2023-12-20T02:43:19;8.30;89.70
19567;DHT22;9930;49.240;8.548;2023-12-20T02:45:49;8.30;90.20
19567;DHT22;9930;49.240;8.548;2023-12-20T02:48:15;8.40;90.00
19567;DHT22;9930;49.240;8.548;2023-12-20T02:50:41;8.30;89.80
19567;DHT22;9930;49.240;8.548;2023-12-20T02:53:06;8.40;90.00
19567;DHT22;9930;49.240;8.548;2023-12-20T02:55:35;8.40;90.00
19567;DHT22;9930;49.240;8.548;2023-12-20T02:58:01;8.40;90.00
19567;DHT22;9930;49.240;8.548;2023-12-20T03:00:27;8.40;90.00
19567;DHT22;9930;49.240;8.548;2023-12-20T03:02:52;8.40;90.00
19567;DHT22;9930;49.240;8.548;2023-12-20T03:05:18;8.40;90.00
19567;DHT22;9930;49.240;8.548;2023-12-20T03:07:46;8.40;90.00
19567;DHT22;9930;49.240;8.548;2023-12-20T03:10:11;8.40;90.00
19567;DHT22;9930;49.240;8.548;2023-12-20T03:12:37;8.40;90.00
19567;DHT22;9930;49.240;8.548;2023-12-20T03:15:03;8.40;90.00
19567;DHT22;9930;49.240;8.548;2023-12-20T03:17:29;8.40;90.00
19567;DHT22;9930;49.240;8.548;2023-12-20T03:19:55;8.40;90.00
19567;DHT22;9930;49.240;8.548;2023-12-20T03:22:22;8.40;90.00
19567;DHT22;9930;49.240;8.548;2023-12-20T03:24:48;8.40;90.00
19567;DHT22;9930;49.240;8.548;2023-12-20T03:27:14;8.40;90.00
19567;DHT22;9930;49.240;8.548;2023-12-20T03:29:40;8.40;90.00
19567;DHT22;9930;49.240;8.548;2023-12-20T03:32:06;8.40;90.00
19567;DHT22;9930;49.240;8.548;2023-12-20T03:34:33;8.40;90.00
19567;DHT22;9930;49.240;8.548;2023-12-20T03:36:59;8.40;90.00
19567;DHT22;9930;49.240;8.548;2023-12-20T03:39:30;8.40;90.10
19567;DHT22;9930;49.240;8.548;2023-12-20T03:41:55;8.40;90.40
19567;DHT22;9930;49.240;8.548;2023-12-20T03:44:24;8.40;90.10
19567;DHT22;9930;49.240;8.548;2023-12-20T03:46:51;8.40;90.10
19567;DHT22;9930;49.240;8.548;2023-12-20T03:49:17;8.40;90.10
19567;DHT22;9930;49.240;8.548;2023-12-20T03:51:48;8.40;90.10
19567;DHT22;9930;49.240;8.548;2023-12-20T03:54:14;8.40;90.00
19567;DHT22;9930;49.240;8.548;2023-12-20T03:56:39;8.40;90.10
19567;DHT22;9930;49.240;8.548;2023-12-20T03:59:06;8.40;90.10
19567;DHT22;9930;49.240;8.548;2023-12-20T04:01:31;8.50;90.10
19567;DHT22;9930;49.240;8.548;2023-12-20T04:03:57;8.50;90.10
19567;DHT22;9930;49.240;8.548;2023-12-20T04:06:25;8.50;90.10
19567;DHT22;9930;49.240;8.548;2023-12-20T04:08:53;8.50;90.20
19567;DHT22;9930;49.240;8.548;2023-12-20T04:11:19;8.40;90.10
19567;DHT22;9930;49.240;8.548;2023-12-20T04:13:45;8.50;90.20
19567;DHT22;9930;49.240;8.548;2023-12-20T04:16:10;8.50;90.10
19567;DHT22;9930;49.240;8.548;2023-12-20T04:18:36;8.50;90.10
19567;DHT22;9930;49.240;8.548;2023-12-20T04:21:02;8.50;90.20
19567;DHT22;9930;49.240;8.548;2023-12-20T04:23:31;8.50;90.10
19567;DHT22;9930;49.240;8.548;2023-12-20T04:25:56;8.50;90.10
19567;DHT22;9930;49.240;8.548;2023-12-20T04:28:25;8.50;90.20
19567;DHT22;9930;49.240;8.548;2023-12-20T04:30:50;8.50;90.20
19567;DHT22;9930;49.240;8.548;2023-12-20T04:33:16;8.50;90.20
19567;DHT22;9930;49.240;8.548;2023-12-20T04:35:42;8.50;90.20
19567;DHT22;9930;49.240;8.548;2023-12-20T04:38:11;8.50;90.20
19567;DHT22;9930;49.240;8.548;2023-12-20T04:40:37;8.50;90.30
19567;DHT22;9930;49.240;8.548;2023-12-20T04:43:03;8.50;90.20
19567;DHT22;9930;49.240;8.548;2023-12-20T04:45:28;8.50;90.20
19567;DHT22;9930;49.240;8.548;2023-12-20T04:47:55;8.50;90.50
19567;DHT22;9930;49.240;8.548;2023-12-20T04:50:23;8.50;90.20
19567;DHT22;9930;49.240;8.548;2023-12-20T04:52:49;8.50;90.20
19567;DHT22;9930;49.240;8.548;2023-12-20T04:55:14;8.50;90.20
19567;DHT22;9930;49.240;8.548;2023-12-20T04:57:40;8.50;90.20
19567;DHT22;9930;49.240;8.548;2023-12-20T05:00:09;8.50;90.20
19567;DHT22;9930;49.240;8.548;2023-12-20T05:02:38;8.50;90.30
19567;DHT22;9930;49.240;8.548;2023-12-20T05:05:04;8.50;90.30
19567;DHT22;9930;49.240;8.548;2023-12-20T05:07:31;8.50;90.30
19567;DHT22;9930;49.240;8.548;2023-12-20T05:09:59;8.50;90.20
19567;DHT22;9930;49.240;8.548;2023-12-20T05:12:27;8.50;90.30
19567;DHT22;9930;49.240;8.548;2023-12-20T05:14:55;8.50;90.30
19567;DHT22;9930;49.240;8.548;2023-12-20T05:17:23;8.50;90.30
19567;DHT22;9930;49.240;8.548;2023-12-20T05:19:51;8.50;90.30
19567;DHT22;9930;49.240;8.548;2023-12-20T05:22:21;8.50;90.30
19567;DHT22;9930;49.240;8.548;2023-12-20T05:24:49;8.60;90.30
19567;DHT22;9930;49.240;8.548;2023-12-20T05:27:15;8.60;90.40
19567;DHT22;9930;49.240;8.548;2023-12-20T05:29:40;8.60;90.40
19567;DHT22;9930;49.240;8.548;2023-12-20T05:32:09;8.60;90.30
19567;DHT22;9930;49.240;8.548;2023-12-20T05:34:36;8.60;90.40
19567;DHT22;9930;49.240;8.548;2023-12-20T05:37:02;8.60;90.20
19567;DHT22;9930;49.240;8.548;2023-12-20T05:39:28;8.60;90.20
19567;DHT22;9930;49.240;8.548;2023-12-20T05:41:58;8.60;90.20
19567;DHT22;9930;49.240;8.548;2023-12-20T05:44:26;8.60;90.20
19567;DHT22;9930;49.240;8.548;2023-12-20T05:46:54;8.60;90.60
19567;DHT22;9930;49.240;8.548;2023-12-20T05:49:22;8.60;90.30
19567;DHT22;9930;49.240;8.548;2023-12-20T05:51:47;8.60;90.30
19567;DHT22;9930;49.240;8.548;2023-12-20T05:54:16;8.60;90.30
19567;DHT22;9930;49.240;8.548;2023-12-20T05:56:42;8.60;90.30
19567;DHT22;9930;49.240;8.548;2023-12-20T05:59:07;8.50;90.30
19567;DHT22;9930;49.240;8.548;2023-12-20T06:01:33;8.60;90.30
19567;DHT22;9930;49.240;8.548;2023-12-20T06:03:59;8.50;90.30
19567;DHT22;9930;49.240;8.548;2023-12-20T06:06:27;8.50;90.30
19567;DHT22;9930;49.240;8.548;2023-12-20T06:08:53;8.60;90.40
19567;DHT22;9930;49.240;8.548;2023-12-20T06:11:21;8.60;90.40
19567;DHT22;9930;49.240;8.548;2023-12-20T06:13:49;8.60;90.30
19567;DHT22;9930;49.240;8.548;2023-12-20T06:16:17;8.50;90.30
19567;DHT22;9930;49.240;8.548;2023-12-20T06:18:43;8.50;90.30
19567;DHT22;9930;49.240;8.548;2023-12-20T06:21:09;8.50;90.30
19567;DHT22;9930;49.240;8.548;2023-12-20T06:23:40;8.50;90.30
19567;DHT22;9930;49.240;8.548;2023-12-20T06:26:08;8.50;90.40
19567;DHT22;9930;49.240;8.548;2023-12-20T06:28:34;8.50;90.40
19567;DHT22;9930;49.240;8.548;2023-12-20T06:31:04;8.50;90.40
19567;DHT22;9930;49.240;8.548;2023-12-20T06:33:33;8.50;90.40
19567;DHT22;9930;49.240;8.548;2023-12-20T06:35:58;8.50;90.30
19567;DHT22;9930;49.240;8.548;2023-12-20T06:38:29;8.50;90.30
19567;DHT22;9930;49.240;8.548;2023-12-20T06:40:57;8.50;90.30
19567;DHT22;9930;49.240;8.548;2023-12-20T06:43:24;8.50;90.30
19567;DHT22;9930;49.240;8.548;2023-12-20T06:45:50;8.50;90.30
19567;DHT22;9930;49.240;8.548;2023-12-20T06:48:16;8.50;90.30
19567;DHT22;9930;49.240;8.548;2023-12-20T06:50:44;8.50;90.40
19567;DHT22;9930;49.240;8.548;2023-12-20T06:53:10;8.40;90.40
19567;DHT22;9930;49.240;8.548;2023-12-20T06:55:37;8.50;90.50
19567;DHT22;9930;49.240;8.548;2023-12-20T06:58:03;8.40;90.50
19567;DHT22;9930;49.240;8.548;2023-12-20T07:00:30;8.50;90.50
19567;DHT22;9930;49.240;8.548;2023-12-20T07:02:56;8.50;90.60
19567;DHT22;9930;49.240;8.548;2023-12-20T07:05:24;8.50;90.60
19567;DHT22;9930;49.240;8.548;2023-12-20T07:07:50;8.50;90.60
19567;DHT22;9930;49.240;8.548;2023-12-20T07:10:16;8.50;90.60
19567;DHT22;9930;49.240;8.548;2023-12-20T07:12:42;8.50;90.60
19567;DHT22;9930;49.240;8.548;2023-12-20T07:15:08;8.50;90.60
19567;DHT22;9930;49.240;8.548;2023-12-20T07:17:37;8.50;90.60
19567;DHT22;9930;49.240;8.548;2023-12-20T07:20:07;8.50;90.50
19567;DHT22;9930;49.240;8.548;2023-12-20T07:22:36;8.50;90.50
19567;DHT22;9930;49.240;8.548;2023-12-20T07:25:02;8.50;90.50
19567;DHT22;9930;49.240;8.548;2023-12-20T07:27:29;8.50;90.50
19567;DHT22;9930;49.240;8.548;2023-12-20T07:29:55;8.50;90.50
19567;DHT22;9930;49.240;8.548;2023-12-20T07:32:23;8.50;90.40
19567;DHT22;9930;49.240;8.548;2023-12-20T07:34:49;8.50;90.30
19567;DHT22;9930;49.240;8.548;2023-12-20T07:37:15;8.50;90.20
19567;DHT22;9930;49.240;8.548;2023-12-20T07:39:41;8.40;90.10
19567;DHT22;9930;49.240;8.548;2023-12-20T07:42:08;8.40;90.00
19567;DHT22;9930;49.240;8.548;2023-12-20T07:44:34;8.30;89.80
19567;DHT22;9930;49.240;8.548;2023-12-20T07:47:03;8.30;89.80
19567;DHT22;9930;49.240;8.548;2023-12-20T07:49:31;8.20;89.70
19567;DHT22;9930;49.240;8.548;2023-12-20T07:51:57;8.20;89.80
19567;DHT22;9930;49.240;8.548;2023-12-20T07:54:23;8.10;89.80
19567;DHT22;9930;49.240;8.548;2023-12-20T07:56:49;8.10;89.80
19567;DHT22;9930;49.240;8.548;2023-12-20T07:59:15;8.00;89.80
19567;DHT22;9930;49.240;8.548;2023-12-20T08:01:40;8.00;90.00
19567;DHT22;9930;49.240;8.548;2023-12-20T08:04:07;7.90;90.00
19567;DHT22;9930;49.240;8.548;2023-12-20T08:06:33;7.90;90.00
19567;DHT22;9930;49.240;8.548;2023-12-20T08:09:01;7.90;90.10
19567;DHT22;9930;49.240;8.548;2023-12-20T08:11:28;7.80;90.10
19567;DHT22;9930;49.240;8.548;2023-12-20T08:13:55;7.80;90.20
19567;DHT22;9930;49.240;8.548;2023-12-20T08:16:20;7.80;90.30
19567;DHT22;9930;49.240;8.548;2023-12-20T08:18:53;7.80;90.30
19567;DHT22;9930;49.240;8.548;2023-12-20T08:21:19;7.80;90.30
19567;DHT22;9930;49.240;8.548;2023-12-20T08:23:50;7.80;90.30
19567;DHT22;9930;49.240;8.548;2023-12-20T08:26:19;7.80;90.40
19567;DHT22;9930;49.240;8.548;2023-12-20T08:28:48;7.80;90.40
19567;DHT22;9930;49.240;8.548;2023-12-20T08:31:15;7.80;90.40
19567;DHT22;9930;49.240;8.548;2023-12-20T08:33:45;7.80;90.40
19567;DHT22;9930;49.240;8.548;2023-12-20T08:36:12;7.90;90.50
19567;DHT22;9930;49.240;8.548;2023-12-20T08:38:38;7.90;90.50
19567;DHT22;9930;49.240;8.548;2023-12-20T08:41:06;7.90;90.50
19567;DHT22;9930;49.240;8.548;2023-12-20T08:43:34;8.00;90.50
19567;DHT22;9930;49.240;8.548;2023-12-20T08:46:02;8.00;90.60
19567;DHT22;9930;49.240;8.548;2023-12-20T08:48:28;8.00;90.60
19567;DHT22;9930;49.240;8.548;2023-12-20T08:50:56;8.10;90.70
19567;DHT22;9930;49.240;8.548;2023-12-20T08:53:22;8.10;90.70
19567;DHT22;9930;49.240;8.548;2023-12-20T08:55:48;8.20;90.70
19567;DHT22;9930;49.240;8.548;2023-12-20T08:58:14;8.20;90.70
19567;DHT22;9930;49.240;8.548;2023-12-20T09:00:40;8.30;90.70
19567;DHT22;9930;49.240;8.548;2023-12-20T09:03:06;8.40;90.70
19567;DHT22;9930;49.240;8.548;2023-12-20T09:05:32;8.40;90.60
19567;DHT22;9930;49.240;8.548;2023-12-20T09:08:00;8.40;90.60
19567;DHT22;9930;49.240;8.548;2023-12-20T09:10:29;8.50;90.50
19567;DHT22;9930;49.240;8.548;2023-12-20T09:12:54;8.50;90.40
19567;DHT22;9930;49.240;8.548;2023-12-20T09:15:24;8.60;90.40
19567;DHT22;9930;49.240;8.548;2023-12-20T09:17:54;8.60;90.30
19567;DHT22;9930;49.240;8.548;2023-12-20T09:20:20;8.70;90.30
19567;DHT22;9930;49.240;8.548;2023-12-20T09:22:49;8.70;90.30
19567;DHT22;9930;49.240;8.548;2023-12-20T09:25:15;8.80;90.20
19567;DHT22;9930;49.240;8.548;2023-12-20T09:27:47;8.80;90.20
19567;DHT22;9930;49.240;8.548;2023-12-20T09:30:13;8.80;90.10
19567;DHT22;9930;49.240;8.548;2023-12-20T09:32:41;8.80;90.10
19567;DHT22;9930;49.240;8.548;2023-12-20T09:35:08;8.90;90.10
19567;DHT22;9930;49.240;8.548;2023-12-20T09:37:34;9.00;90.10
19567;DHT22;9930;49.240;8.548;2023-12-20T09:40:03;9.00;90.00
19567;DHT22;9930;49.240;8.548;2023-12-20T09:42:41;9.10;90.20
19567;DHT22;9930;49.240;8.548;2023-12-20T09:45:15;9.10;89.80
19567;DHT22;9930;49.240;8.548;2023-12-20T09:47:43;9.10;89.80
19567;DHT22;9930;49.240;8.548;2023-12-20T09:50:11;9.20;89.70
19567;DHT22;9930;49.240;8.548;2023-12-20T09:52:39;9.20;89.60
19567;DHT22;9930;49.240;8.548;2023-12-20T09:55:12;9.30;89.60
19567;DHT22;9930;49.240;8.548;2023-12-20T09:57:39;9.30;89.30
19567;DHT22;9930;49.240;8.548;2023-12-20T10:00:06;9.40;89.30
19567;DHT22;9930;49.240;8.548;2023-12-20T10:02:34;9.40;89.10
19567;DHT22;9930;49.240;8.548;2023-12-20T10:05:15;9.40;88.80
19567;DHT22;9930;49.240;8.548;2023-12-20T10:07:45;9.50;88.60
19567;DHT22;9930;49.240;8.548;2023-12-20T10:10:13;9.50;88.30
19567;DHT22;9930;49.240;8.548;2023-12-20T10:13:07;9.60;88.50
19567;DHT22;9930;49.240;8.548;2023-12-20T10:15:38;9.60;88.30
19567;DHT22;9930;49.240;8.548;2023-12-20T10:18:04;9.60;88.30
19567;DHT22;9930;49.240;8.548;2023-12-20T10:20:35;9.70;88.80
19567;DHT22;9930;49.240;8.548;2023-12-20T10:23:04;9.80;88.70
19567;DHT22;9930;49.240;8.548;2023-12-20T10:25:30;9.80;88.30
19567;DHT22;9930;49.240;8.548;2023-12-20T10:28:16;9.90;88.30
19567;DHT22;9930;49.240;8.548;2023-12-20T10:30:48;9.90;87.50
19567;DHT22;9930;49.240;8.548;2023-12-20T10:33:13;9.90;87.70
19567;DHT22;9930;49.240;8.548;2023-12-20T10:35:49;10.00;87.40
19567;DHT22;9930;49.240;8.548;2023-12-20T10:38:15;10.00;87.50
19567;DHT22;9930;49.240;8.548;2023-12-20T10:40:45;10.00;87.80
19567;DHT22;9930;49.240;8.548;2023-12-20T10:43:12;10.10;87.70
19567;DHT22;9930;49.240;8.548;2023-12-20T10:45:42;10.10;87.80
19567;DHT22;9930;49.240;8.548;2023-12-20T10:48:11;10.20;87.80
19567;DHT22;9930;49.240;8.548;2023-12-20T10:50:38;10.20;87.70
19567;DHT22;9930;49.240;8.548;2023-12-20T10:53:07;10.30;87.70
19567;DHT22;9930;49.240;8.548;2023-12-20T10:55:33;10.40;87.80
19567;DHT22;9930;49.240;8.548;2023-12-20T10:58:12;10.50;87.50
19567;DHT22;9930;49.240;8.548;2023-12-20T11:00:40;10.50;86.80
19567;DHT22;9930;49.240;8.548;2023-12-20T11:03:09;10.50;86.60
19567;DHT22;9930;49.240;8.548;2023-12-20T11:06:03;10.50;86.00
19567;DHT22;9930;49.240;8.548;2023-12-20T11:08:47;10.50;84.80
19567;DHT22;9930;49.240;8.548;2023-12-20T11:11:26;10.50;85.40
19567;DHT22;9930;49.240;8.548;2023-12-20T11:14:03;10.50;85.50
19567;DHT22;9930;49.240;8.548;2023-12-20T11:16:40;10.50;85.00
19567;DHT22;9930;49.240;8.548;2023-12-20T11:19:06;10.40;84.60
19567;DHT22;9930;49.240;8.548;2023-12-20T11:21:33;10.30;84.80
19567;DHT22;9930;49.240;8.548;2023-12-20T11:24:00;10.30;84.90
19567;DHT22;9930;49.240;8.548;2023-12-20T11:26:27;10.30;85.50
19567;DHT22;9930;49.240;8.548;2023-12-20T11:29:34;10.30;84.90
19567;DHT22;9930;49.240;8.548;2023-12-20T11:34:58;10.20;84.50
19567;DHT22;9930;49.240;8.548;2023-12-20T11:37:35;10.20;84.60
19567;DHT22;9930;49.240;8.548;2023-12-20T11:42:42;10.10;85.10
19567;DHT22;9930;49.240;8.548;2023-12-20T11:45:15;10.10;84.90
19567;DHT22;9930;49.240;8.548;2023-12-20T11:47:47;10.10;85.20
19567;DHT22;9930;49.240;8.548;2023-12-20T11:50:16;10.10;85.30
19567;DHT22;9930;49.240;8.548;2023-12-20T11:52:44;10.10;85.40
19567;DHT22;9930;49.240;8.548;2023-12-20T11:55:10;10.10;85.30
19567;DHT22;9930;49.240;8.548;2023-12-20T11:57:38;10.00;85.20
19567;DHT22;9930;49.240;8.548;2023-12-20T12:00:10;10.00;85.50
19567;DHT22;9930;49.240;8.548;2023-12-20T12:02:37;10.00;85.50
19567;DHT22;9930;49.240;8.548;2023-12-20T12:05:03;10.00;85.60
19567;DHT22;9930;49.240;8.548;2023-12-20T12:07:33;10.10;85.70
19567;DHT22;9930;49.240;8.548;2023-12-20T12:10:00;10.10;85.70
19567;DHT22;9930;49.240;8.548;2023-12-20T12:12:29;10.10;85.70
19567;DHT22;9930;49.240;8.548;2023-12-20T12:14:55;10.10;85.80
19567;DHT22;9930;49.240;8.548;2023-12-20T12:17:23;10.10;85.70
19567;DHT22;9930;49.240;8.548;2023-12-20T12:19:49;10.10;86.30
19567;DHT22;9930;49.240;8.548;2023-12-20T12:22:15;10.10;85.40
19567;DHT22;9930;49.240;8.548;2023-12-20T12:24:46;10.10;85.10
19567;DHT22;9930;49.240;8.548;2023-12-20T12:27:13;10.10;85.00
19567;DHT22;9930;49.240;8.548;2023-12-20T12:29:39;10.10;85.10
19567;DHT22;9930;49.240;8.548;2023-12-20T12:32:09;10.10;85.00
19567;DHT22;9930;49.240;8.548;2023-12-20T12:34:36;10.10;84.90
19567;DHT22;9930;49.240;8.548;2023-12-20T12:37:04;10.10;84.70
19567;DHT22;9930;49.240;8.548;2023-12-20T12:39:30;10.00;84.80
19567;DHT22;9930;49.240;8.548;2023-12-20T12:41:58;10.00;84.80
19567;DHT22;9930;49.240;8.548;2023-12-20T12:44:23;10.00;84.80
19567;DHT22;9930;49.240;8.548;2023-12-20T12:46:53;10.00;84.70
19567;DHT22;9930;49.240;8.548;2023-12-20T12:49:22;9.90;84.40
19567;DHT22;9930;49.240;8.548;2023-12-20T12:51:50;9.90;84.50
19567;DHT22;9930;49.240;8.548;2023-12-20T12:54:16;9.90;84.60
19567;DHT22;9930;49.240;8.548;2023-12-20T12:56:43;9.90;84.60
19567;DHT22;9930;49.240;8.548;2023-12-20T12:59:13;9.90;84.50
19567;DHT22;9930;49.240;8.548;2023-12-20T13:01:38;9.90;84.50
19567;DHT22;9930;49.240;8.548;2023-12-20T13:04:07;9.90;84.40
19567;DHT22;9930;49.240;8.548;2023-12-20T13:06:39;9.80;84.20
19567;DHT22;9930;49.240;8.548;2023-12-20T13:09:07;9.80;84.30
19567;DHT22;9930;49.240;8.548;2023-12-20T13:11:37;9.80;84.30
19567;DHT22;9930;49.240;8.548;2023-12-20T13:14:03;9.80;84.30
19567;DHT22;9930;49.240;8.548;2023-12-20T13:16:29;9.80;84.40
19567;DHT22;9930;49.240;8.548;2023-12-20T13:18:55;9.80;84.40
19567;DHT22;9930;49.240;8.548;2023-12-20T13:21:22;9.80;84.40
19567;DHT22;9930;49.240;8.548;2023-12-20T13:23:48;9.80;84.40
19567;DHT22;9930;49.240;8.548;2023-12-20T13:26:16;9.70;84.40
19567;DHT22;9930;49.240;8.548;2023-12-20T13:28:44;9.70;84.40
19567;DHT22;9930;49.240;8.548;2023-12-20T13:31:10;9.70;84.50
19567;DHT22;9930;49.240;8.548;2023-12-20T13:33:41;9.70;84.50
19567;DHT22;9930;49.240;8.548;2023-12-20T13:36:07;9.70;84.40
19567;DHT22;9930;49.240;8.548;2023-12-20T13:38:36;9.70;84.40
19567;DHT22;9930;49.240;8.548;2023-12-20T13:41:07;9.60;84.40
19567;DHT22;9930;49.240;8.548;2023-12-20T13:43:34;9.60;84.40
19567;DHT22;9930;49.240;8.548;2023-12-20T13:46:06;9.60;84.40
19567;DHT22;9930;49.240;8.548;2023-12-20T13:48:35;9.60;84.50
19567;DHT22;9930;49.240;8.548;2023-12-20T13:51:05;9.60;84.60
19567;DHT22;9930;49.240;8.548;2023-12-20T13:53:32;9.60;84.60
19567;DHT22;9930;49.240;8.548;2023-12-20T13:56:01;9.60;84.70
19567;DHT22;9930;49.240;8.548;2023-12-20T13:58:31;9.60;84.80
19567;DHT22;9930;49.240;8.548;2023-12-20T14:00:56;9.60;84.90
19567;DHT22;9930;49.240;8.548;2023-12-20T14:03:23;9.60;84.90
19567;DHT22;9930;49.240;8.548;2023-12-20T14:05:51;9.60;84.90
19567;DHT22;9930;49.240;8.548;2023-12-20T14:08:17;9.60;85.00
19567;DHT22;9930;49.240;8.548;2023-12-20T14:10:43;9.60;85.00
19567;DHT22;9930;49.240;8.548;2023-12-20T14:13:11;9.60;84.90
19567;DHT22;9930;49.240;8.548;2023-12-20T14:15:37;9.60;84.90
19567;DHT22;9930;49.240;8.548;2023-12-20T14:18:05;9.60;85.00
19567;DHT22;9930;49.240;8.548;2023-12-20T14:20:36;9.60;85.00
19567;DHT22;9930;49.240;8.548;2023-12-20T14:23:04;9.50;84.90
19567;DHT22;9930;49.240;8.548;2023-12-20T14:25:32;9.50;84.80
19567;DHT22;9930;49.240;8.548;2023-12-20T14:27:58;9.50;84.80
19567;DHT22;9930;49.240;8.548;2023-12-20T14:30:27;9.50;84.90
19567;DHT22;9930;49.240;8.548;2023-12-20T14:32:53;9.50;84.80
19567;DHT22;9930;49.240;8.548;2023-12-20T14:35:19;9.50;84.80
19567;DHT22;9930;49.240;8.548;2023-12-20T14:37:45;9.50;84.80
19567;DHT22;9930;49.240;8.548;2023-12-20T14:40:11;9.50;84.70
19567;DHT22;9930;49.240;8.548;2023-12-20T14:42:41;9.50;84.70
19567;DHT22;9930;49.240;8.548;2023-12-20T14:45:17;9.50;84.70
19567;DHT22;9930;49.240;8.548;2023-12-20T14:47:43;9.50;84.60
19567;DHT22;9930;49.240;8.548;2023-12-20T14:50:13;9.50;84.60
19567;DHT22;9930;49.240;8.548;2023-12-20T14:52:43;9.40;84.40
19567;DHT22;9930;49.240;8.548;2023-12-20T14:55:10;9.40;84.40
19567;DHT22;9930;49.240;8.548;2023-12-20T14:57:38;9.40;84.30
19567;DHT22;9930;49.240;8.548;2023-12-20T15:00:05;9.40;84.10
19567;DHT22;9930;49.240;8.548;2023-12-20T15:02:32;9.30;84.00
19567;DHT22;9930;49.240;8.548;2023-12-20T15:05:00;9.30;84.10
19567;DHT22;9930;49.240;8.548;2023-12-20T15:07:26;9.30;84.10
19567;DHT22;9930;49.240;8.548;2023-12-20T15:09:54;9.20;84.10
19567;DHT22;9930;49.240;8.548;2023-12-20T15:12:20;9.20;84.20
19567;DHT22;9930;49.240;8.548;2023-12-20T15:14:46;9.20;84.40
19567;DHT22;9930;49.240;8.548;2023-12-20T15:17:12;9.10;84.50
19567;DHT22;9930;49.240;8.548;2023-12-20T15:19:38;9.10;84.70
19567;DHT22;9930;49.240;8.548;2023-12-20T15:22:07;9.10;84.80
19567;DHT22;9930;49.240;8.548;2023-12-20T15:24:33;9.10;85.00
19567;DHT22;9930;49.240;8.548;2023-12-20T15:27:05;9.10;85.00
19567;DHT22;9930;49.240;8.548;2023-12-20T15:29:33;9.10;85.00
19567;DHT22;9930;49.240;8.548;2023-12-20T15:31:59;9.10;85.00
19567;DHT22;9930;49.240;8.548;2023-12-20T15:34:25;9.20;85.10
19567;DHT22;9930;49.240;8.548;2023-12-20T15:36:53;9.10;85.00
19567;DHT22;9930;49.240;8.548;2023-12-20T15:39:22;9.20;85.10
19567;DHT22;9930;49.240;8.548;2023-12-20T15:41:48;9.20;85.10
19567;DHT22;9930;49.240;8.548;2023-12-20T15:44:15;9.20;85.10
19567;DHT22;9930;49.240;8.548;2023-12-20T15:46:41;9.20;85.10
19567;DHT22;9930;49.240;8.548;2023-12-20T15:49:10;9.20;85.10
19567;DHT22;9930;49.240;8.548;2023-12-20T15:51:41;9.20;85.10
19567;DHT22;9930;49.240;8.548;2023-12-20T15:54:09;9.20;85.10
19567;DHT22;9930;49.240;8.548;2023-12-20T15:56:35;9.20;85.10
19567;DHT22;9930;49.240;8.548;2023-12-20T15:59:07;9.20;84.90
19567;DHT22;9930;49.240;8.548;2023-12-20T16:01:41;9.20;85.00
19567;DHT22;9930;49.240;8.548;2023-12-20T16:04:14;9.20;85.00
19567;DHT22;9930;49.240;8.548;2023-12-20T16:06:40;9.20;85.00
19567;DHT22;9930;49.240;8.548;2023-12-20T16:09:29;9.20;85.10